Butler, Wisconsin
Current Conditions -  °F | °C
As of 9:45 AM on Thursday 27 Nov 2014 (Local Time) from KMWC Reporting Station
Overcast Overcast  
Wind Chill: 11°   Ceiling: 3000
Heat Index: 23°   Visibility: 10mi
Dew Point: 16°   Wind: 14mph
Humidity: 74%   Direction: 310°NW
Pressure: 30.33"   Gusts: NA
Location:  43.11°N, 88.07°W
Report Text: KMWC 271545Z AUTO 31012KT 10SM OVC030 M05/M09 A3033
Loading
Personal Weather Stations






























Interactive Weather Map New forecast layout! Learn more

10-Day Weather Forecast

Advertisements
Track Severe Weather on mobile